Time;durP1;ratioP1;P1;durP2;ratioP2;P2;SDS_P1;SDS_P2;PMS_P1;PMS_P2;Temp;Humidity;BMP_temperature;BMP_pressure;BME280_temperature;BME280_humidity;BME280_pressure;Samples;Min_cycle;Max_cycle;Signal;HPM_P1;HPM_P2
2022/01/21 00:01:25;;;;;;;;;;;3.10;99.90;;;2.64;100.00;101968.19;4946862;28;20002;-75
2022/01/21 00:03:52;;;;;;;;;;;3.10;99.90;;;2.63;100.00;101965.56;4959664;28;20048;-75
2022/01/21 00:06:19;;;;;;;;;;;3.20;99.90;;;2.61;100.00;101960.28;4966407;28;20633;-76
2022/01/21 00:08:48;;;;;;;;;;;3.20;99.90;;;2.64;100.00;101968.19;4967683;28;19934;-76
2022/01/21 00:11:15;;;;;;;;;;;3.30;99.90;;;2.61;100.00;101969.81;4967391;28;20691;-75
2022/01/21 00:13:43;;;;;;;;;;;3.00;99.90;;;2.63;100.00;101974.22;4964779;28;19926;-75
2022/01/21 00:16:18;;;;;;;;;;;3.00;99.90;;;2.64;100.00;101964.72;4965195;28;19930;-75
2022/01/21 00:19:07;;;;;;;;;;;3.10;99.90;;;2.66;100.00;101969.16;4966613;28;20019;-75
2022/01/21 00:32:37;;;;;;;;;;;3.00;99.90;;;2.48;100.00;101976.28;4966314;28;19930;-76
2022/01/21 00:35:05;;;;;;;;;;;3.20;99.90;;;2.45;100.00;101981.38;4948742;28;19934;-75
2022/01/21 00:37:32;;;;;;;;;;;3.00;99.90;;;2.39;100.00;101982.94;4946749;28;20381;-75
2022/01/21 00:40:01;;;;;;;;;;;3.00;99.90;;;2.37;100.00;101981.09;4930222;28;20387;-75
2022/01/21 00:44:59;;;;;;;;;;;4.00;99.90;;;2.26;100.00;101994.59;4945052;29;19962;-77
2022/01/21 00:47:27;;;;;;;;;;;3.80;99.90;;;2.22;100.00;101986.63;4953012;28;19952;-78
2022/01/21 00:49:55;;;;;;;;;;;5.30;99.90;;;2.12;100.00;101991.47;4965134;28;19934;-77
2022/01/21 00:52:22;;;;;;;;;;;2.80;99.90;;;2.09;100.00;101991.38;4964702;28;19930;-77
2022/01/21 00:54:49;;;;;;;;;;;4.30;99.90;;;2.10;100.00;101997.44;4948764;28;19937;-76
2022/01/21 00:57:16;;;;;;;;;;;2.60;99.90;;;2.12;100.00;101993.22;4948970;28;19961;-76
2022/01/21 00:59:43;;;;;;;;;;;2.70;99.90;;;1.98;100.00;102003.97;4965089;28;19930;-76
2022/01/21 01:02:10;;;;;;;;;;;3.70;99.90;;;2.00;100.00;102001.41;4949271;28;20032;-76
2022/01/21 01:04:37;;;;;;;;;;;2.50;99.90;;;1.99;100.00;102007.44;4948407;28;20353;-77
2022/01/21 01:07:05;;;;;;;;;;;2.70;99.90;;;1.98;100.00;102008.25;4967234;28;19941;-77
2022/01/21 01:09:33;;;;;;;;;;;2.60;99.90;;;1.93;100.00;102008.06;4949223;28;19930;-78
2022/01/21 01:20:07;;;;;;;;;;;4.70;99.90;;;1.98;100.00;102010.84;4998964;28;19931;-76
2022/01/21 01:27:53;;;;;;;;;;;2.50;99.90;;;2.01;100.00;102013.56;4998974;28;19939;-76
2022/01/21 01:30:22;;;;;;;;;;;4.20;99.90;;;1.99;100.00;102015.22;4992554;28;19934;-77
2022/01/21 01:32:50;;;;;;;;;;;2.50;99.90;;;1.98;100.00;102013.44;5007324;28;19927;-77
2022/01/21 01:35:20;;;;;;;;;;;2.60;99.90;;;2.00;100.00;102016.97;4991756;28;19931;-76
2022/01/21 01:40:28;;;;;;;;;;;2.60;99.90;;;2.01;100.00;102012.69;4987397;28;19945;-76
2022/01/21 01:50:56;;;;;;;;;;;2.50;99.90;;;1.88;100.00;102011.34;4998611;28;19959;-76
2022/01/21 01:53:32;;;;;;;;;;;3.60;99.90;;;1.85;100.00;102004.31;4926880;29;19965;-76
2022/01/21 01:56:00;;;;;;;;;;;2.40;99.90;;;1.82;100.00;102009.41;4988509;28;19931;-77
2022/01/21 01:58:37;;;;;;;;;;;4.20;99.90;;;1.74;100.00;102016.00;5010116;28;19933;-77
2022/01/21 02:01:05;;;;;;;;;;;2.40;99.90;;;1.73;100.00;102012.53;4929706;28;19934;-76
2022/01/21 02:03:33;;;;;;;;;;;2.30;99.90;;;1.64;100.00;102013.06;4912453;29;19931;-76
2022/01/21 02:06:02;;;;;;;;;;;2.40;99.90;;;1.54;100.00;102010.91;4929705;29;20300;-76
2022/01/21 02:08:31;;;;;;;;;;;2.20;99.90;;;1.39;100.00;102013.75;4945366;29;19930;-77
2022/01/21 02:10:58;;;;;;;;;;;2.10;99.90;;;1.36;100.00;102011.03;4944983;29;19934;-77
2022/01/21 02:13:34;;;;;;;;;;;2.20;99.90;;;1.26;100.00;102009.78;4943733;28;20419;-76
2022/01/21 02:16:12;;;;;;;;;;;3.20;99.90;;;1.26;100.00;102014.97;4914572;29;20357;-78
2022/01/21 02:23:55;;;;;;;;;;;1.90;99.90;;;1.27;100.00;102034.91;4928634;29;19942;-77
2022/01/21 02:26:22;;;;;;;;;;;1.90;99.90;;;1.23;100.00;102033.00;4928943;29;19935;-77
2022/01/21 02:28:49;;;;;;;;;;;1.90;99.90;;;1.09;100.00;102037.59;4915605;29;20009;-77
2022/01/21 02:31:16;;;;;;;;;;;3.00;99.90;;;0.98;100.00;102031.97;4909775;28;19930;-76
2022/01/21 02:33:43;;;;;;;;;;;1.80;99.90;;;0.87;100.00;102028.94;4924069;29;19938;-75
2022/01/21 02:36:11;;;;;;;;;;;4.10;99.90;;;0.86;100.00;102027.16;4909616;29;20577;-75
2022/01/21 02:38:42;;;;;;;;;;;1.60;99.90;;;0.92;100.00;102023.94;4925656;29;20546;-75
2022/01/21 02:41:09;;;;;;;;;;;1.50;99.90;;;0.85;100.00;102028.84;4928800;29;19930;-75
2022/01/21 02:43:36;;;;;;;;;;;1.40;99.90;;;0.73;100.00;102012.81;4911832;29;19931;-74
2022/01/21 02:46:07;;;;;;;;;;;1.30;99.90;;;0.81;100.00;102024.38;4933153;29;20288;-75
2022/01/21 02:48:38;;;;;;;;;;;1.50;99.90;;;0.79;100.00;102026.00;4932763;29;19942;-76
2022/01/21 02:51:11;;;;;;;;;;;1.50;99.90;;;0.68;100.00;102025.56;4933058;28;19935;-76
2022/01/21 02:54:04;;;;;;;;;;;1.50;99.90;;;0.58;100.00;102018.19;4946801;28;19930;-77
2022/01/21 02:56:35;;;;;;;;;;;1.50;99.90;;;0.37;100.00;102023.31;4948139;29;19927;-76
2022/01/21 02:59:03;;;;;;;;;;;1.80;99.90;;;0.20;100.00;102023.44;4932697;29;19931;-76
2022/01/21 03:01:33;;;;;;;;;;;1.20;99.90;;;0.19;100.00;102034.59;4947973;28;19930;-77
2022/01/21 03:04:01;;;;;;;;;;;1.20;99.90;;;0.12;100.00;102033.44;4946694;29;19973;-78
2022/01/21 03:06:29;;;;;;;;;;;1.20;99.90;;;0.14;100.00;102039.56;4932420;29;19956;-76
2022/01/21 03:08:58;;;;;;;;;;;1.00;99.90;;;0.13;100.00;102047.28;4932576;29;19930;-77
2022/01/21 03:11:26;;;;;;;;;;;2.80;99.90;;;0.12;100.00;102056.72;4947842;29;19926;-77
2022/01/21 03:13:54;;;;;;;;;;;0.80;99.90;;;0.12;100.00;102055.88;4931032;29;19930;-77
2022/01/21 03:16:21;;;;;;;;;;;2.30;99.90;;;0.12;100.00;102064.50;4931940;29;20467;-76
2022/01/21 03:18:49;;;;;;;;;;;0.90;99.90;;;0.11;100.00;102064.44;4914964;29;19934;-76
2022/01/21 03:21:17;;;;;;;;;;;1.00;99.90;;;0.12;100.00;102076.56;4912546;29;19942;-77
2022/01/21 03:23:49;;;;;;;;;;;0.90;99.90;;;0.10;100.00;102068.72;4927180;29;19935;-77
2022/01/21 03:26:21;;;;;;;;;;;1.10;99.90;;;0.12;100.00;102069.69;4913408;28;19970;-76
2022/01/21 03:28:52;;;;;;;;;;;0.80;99.90;;;0.07;100.00;102070.28;4928552;29;20021;-77
2022/01/21 03:31:20;;;;;;;;;;;0.90;99.90;;;0.04;100.00;102063.28;4925425;29;19931;-76
2022/01/21 03:33:49;;;;;;;;;;;0.80;99.90;;;0.06;100.00;102060.75;5009591;28;19934;-77
2022/01/21 03:36:16;;;;;;;;;;;0.90;99.90;;;0.04;100.00;102073.63;4947471;29;19930;-76
2022/01/21 03:38:44;;;;;;;;;;;0.80;99.90;;;0.06;100.00;102074.59;4947382;28;19980;-77
2022/01/21 03:41:11;;;;;;;;;;;0.90;99.90;;;0.09;100.00;102076.44;4947477;28;20037;-77
2022/01/21 03:43:38;;;;;;;;;;;0.70;99.90;;;0.09;100.00;102074.72;4930090;28;20409;-77
2022/01/21 03:46:06;;;;;;;;;;;1.80;99.90;;;0.11;100.00;102072.22;4947117;28;20612;-76
2022/01/21 03:48:35;;;;;;;;;;;0.90;99.90;;;0.12;100.00;102074.00;4946479;28;19930;-76
2022/01/21 03:51:04;;;;;;;;;;;0.90;99.90;;;0.13;100.00;102062.81;4944923;28;19937;-76
2022/01/21 03:53:32;;;;;;;;;;;0.90;99.90;;;0.21;100.00;102065.75;4945961;28;20017;-77
2022/01/21 03:56:00;;;;;;;;;;;3.70;99.90;;;0.20;100.00;102072.63;4962984;28;19930;-77
2022/01/21 03:58:28;;;;;;;;;;;0.70;99.90;;;0.11;100.00;102078.25;4947783;28;20401;-76
2022/01/21 04:00:56;;;;;;;;;;;2.60;99.90;;;0.02;100.00;102077.84;4950185;28;19941;-76
2022/01/21 04:03:27;;;;;;;;;;;3.50;99.90;;;-0.01;100.00;102095.78;4949697;28;19934;-77
2022/01/21 04:05:54;;;;;;;;;;;0.90;99.90;;;0.00;100.00;102089.84;4966171;28;19976;-76
2022/01/21 04:08:22;;;;;;;;;;;0.80;99.90;;;0.08;100.00;102085.88;4966214;28;19930;-77
2022/01/21 04:10:57;;;;;;;;;;;1.00;99.90;;;0.14;100.00;102081.00;4950710;28;19933;-77
2022/01/21 04:13:28;;;;;;;;;;;0.90;99.90;;;0.17;100.00;102088.03;4944755;29;20330;-77
2022/01/21 04:15:58;;;;;;;;;;;1.90;99.90;;;0.12;100.00;102087.78;4948027;28;19958;-76
2022/01/21 04:18:44;;;;;;;;;;;0.80;99.90;;;0.04;100.00;102096.94;4933706;29;19954;-77
2022/01/21 04:21:12;;;;;;;;;;;0.80;99.90;;;0.04;100.00;102098.59;4946499;28;20537;-76
2022/01/21 04:23:40;;;;;;;;;;;0.80;99.90;;;0.07;100.00;102088.41;4946739;28;19931;-77
2022/01/21 04:26:11;;;;;;;;;;;0.80;99.90;;;0.05;100.00;102093.53;4931185;29;19934;-76
2022/01/21 04:28:37;;;;;;;;;;;0.80;99.90;;;0.04;100.00;102099.50;4946348;28;19931;-77
2022/01/21 04:31:06;;;;;;;;;;;2.90;99.90;;;-0.06;100.00;102097.28;4930830;29;19938;-77
2022/01/21 04:33:42;;;;;;;;;;;1.10;99.90;;;-0.15;100.00;102102.91;4930734;29;19931;-77
2022/01/21 04:36:10;;;;;;;;;;;0.60;99.90;;;-0.16;100.00;102102.06;4946302;28;20407;-77
2022/01/21 04:38:40;;;;;;;;;;;0.50;99.90;;;-0.32;100.00;102100.41;4930969;28;20488;-75
2022/01/21 04:49:13;;;;;;;;;;;0.60;99.90;;;-0.62;100.00;102104.97;4945946;29;19961;-75
2022/01/21 04:52:01;;;;;;;;;;;0.40;99.90;;;-0.73;100.00;102100.13;4945717;28;19931;-75
2022/01/21 04:54:38;;;;;;;;;;;0.40;99.90;;;-0.77;100.00;102105.06;4932767;29;19933;-75
2022/01/21 04:57:06;;;;;;;;;;;0.30;99.90;;;-0.91;100.00;102104.38;4930219;29;19953;-75
2022/01/21 04:59:37;;;;;;;;;;;-0.10;99.90;;;-0.93;100.00;102114.63;4930419;29;19933;-75
2022/01/21 05:02:24;;;;;;;;;;;0.00;99.90;;;-0.95;100.00;102112.75;4928887;29;19925;-75
2022/01/21 05:04:53;;;;;;;;;;;-0.10;99.90;;;-1.05;100.00;102113.97;4945930;28;19927;-75
2022/01/21 05:07:25;;;;;;;;;;;0.20;99.90;;;-1.00;100.00;102122.88;4930301;29;20354;-76
2022/01/21 05:09:53;;;;;;;;;;;-0.10;99.90;;;-1.12;100.00;102115.34;4946126;29;19926;-76
2022/01/21 05:12:22;;;;;;;;;;;-0.20;99.90;;;-1.00;100.00;102115.13;4945602;28;19930;-76
2022/01/21 05:17:29;;;;;;;;;;;0.00;99.90;;;-0.83;100.00;102128.03;4945464;29;20419;-75
2022/01/21 05:19:56;;;;;;;;;;;0.80;99.90;;;-0.84;100.00;102129.72;4931104;29;19988;-75
2022/01/21 05:22:47;;;;;;;;;;;0.70;99.90;;;-0.82;100.00;102129.81;4945538;29;19953;-76
2022/01/21 05:25:19;;;;;;;;;;;-0.10;99.90;;;-0.79;100.00;102119.63;4928239;29;19930;-76
2022/01/21 05:27:51;;;;;;;;;;;0.20;99.90;;;-0.78;100.00;102122.28;4916851;29;20034;-77
2022/01/21 05:30:19;;;;;;;;;;;0.00;99.90;;;-0.80;100.00;102130.75;4913508;28;19974;-77
2022/01/21 05:33:10;;;;;;;;;;;1.30;99.90;;;-0.84;100.00;102134.88;4963946;28;20647;-77
2022/01/21 05:35:57;;;;;;;;;;;-2.40;99.90;;;-0.81;100.00;102137.63;4945208;29;20378;-76
2022/01/21 05:38:34;;;;;;;;;;;0.00;99.90;;;-0.88;100.00;102146.75;4917866;29;19973;-77
2022/01/21 05:41:18;;;;;;;;;;;0.00;99.90;;;-0.84;100.00;102140.06;4932636;29;19931;-77
2022/01/21 05:44:13;;;;;;;;;;;1.40;99.90;;;-0.70;100.00;102142.47;4931257;29;20021;-77
2022/01/21 05:46:57;;;;;;;;;;;0.10;99.90;;;-0.73;100.00;102138.00;4932311;29;19937;-77
2022/01/21 05:49:47;;;;;;;;;;;-0.20;99.90;;;-0.70;100.00;102133.03;4943010;28;20017;-77
2022/01/21 05:52:47;;;;;;;;;;;0.10;99.90;;;-0.62;100.00;102152.38;4933683;28;19927;-77
2022/01/21 05:55:25;;;;;;;;;;;0.20;99.90;;;-0.54;100.00;102157.06;4932230;29;20655;-77
2022/01/21 05:58:11;;;;;;;;;;;0.30;99.90;;;-0.55;100.00;102166.50;4947378;28;19931;-77
2022/01/21 06:00:38;;;;;;;;;;;1.40;99.90;;;-0.52;100.00;102160.63;4930085;29;19926;-77
2022/01/21 06:03:05;;;;;;;;;;;0.20;99.90;;;-0.44;100.00;102174.81;4926377;29;19938;-77
2022/01/21 06:05:33;;;;;;;;;;;1.90;99.90;;;-0.38;100.00;102180.31;4964928;28;20395;-76
2022/01/21 06:08:03;;;;;;;;;;;0.30;99.90;;;-0.41;100.00;102174.06;4941447;28;19945;-77
2022/01/21 06:10:30;;;;;;;;;;;0.40;99.90;;;-0.36;100.00;102165.75;4930142;29;19930;-76
2022/01/21 06:12:57;;;;;;;;;;;0.40;99.90;;;-0.33;100.00;102163.31;4929316;29;19930;-76
2022/01/21 06:15:24;;;;;;;;;;;2.00;99.90;;;-0.27;100.00;102164.41;4929275;29;20383;-77
2022/01/21 06:17:51;;;;;;;;;;;0.60;99.90;;;-0.22;100.00;102183.66;4945772;29;19930;-76
2022/01/21 06:20:19;;;;;;;;;;;0.60;99.90;;;-0.23;100.00;102187.94;4945067;29;19915;-76
2022/01/21 06:22:45;;;;;;;;;;;0.60;99.90;;;-0.22;100.00;102184.53;4964851;29;19931;-76
2022/01/21 06:25:12;;;;;;;;;;;0.70;99.90;;;-0.20;100.00;102182.91;4948216;29;19941;-77
2022/01/21 06:27:39;;;;;;;;;;;1.70;99.90;;;-0.18;100.00;102178.69;4943385;28;19934;-77
2022/01/21 06:30:13;;;;;;;;;;;0.40;99.90;;;-0.21;100.00;102183.72;4937804;28;19934;-77
2022/01/21 06:32:40;;;;;;;;;;;0.80;99.90;;;-0.16;100.00;102186.53;4948275;29;19930;-76
2022/01/21 06:35:09;;;;;;;;;;;0.50;99.90;;;-0.13;100.00;102176.31;4947956;29;19927;-80
2022/01/21 06:37:37;;;;;;;;;;;0.60;99.90;;;-0.09;100.00;102186.00;4932532;29;19935;-78
2022/01/21 06:40:06;;;;;;;;;;;0.70;99.90;;;-0.06;100.00;102193.94;4942536;29;19935;-79
2022/01/21 06:42:33;;;;;;;;;;;0.70;99.90;;;-0.02;100.00;102194.97;4964600;28;19933;-77
2022/01/21 06:45:01;;;;;;;;;;;1.30;99.90;;;0.03;100.00;102193.50;4935556;29;20005;-77
2022/01/21 06:47:29;;;;;;;;;;;0.90;99.90;;;0.00;100.00;102193.38;4946092;29;19932;-77
2022/01/21 06:49:59;;;;;;;;;;;0.80;99.90;;;0.02;100.00;102194.31;4927030;29;20056;-77
2022/01/21 06:52:28;;;;;;;;;;;3.60;99.90;;;0.06;100.00;102192.75;4936820;28;20020;-77
2022/01/21 06:54:55;;;;;;;;;;;0.80;99.90;;;0.03;100.00;102197.78;4945229;29;19930;-77
2022/01/21 06:57:22;;;;;;;;;;;2.40;99.90;;;0.06;100.00;102201.41;4945349;28;19930;-77
2022/01/21 06:59:49;;;;;;;;;;;0.70;99.90;;;0.04;100.00;102199.56;4947932;28;19930;-77
2022/01/21 07:02:18;;;;;;;;;;;0.90;99.90;;;0.05;100.00;102202.22;4945187;29;19931;-77
2022/01/21 07:04:46;;;;;;;;;;;1.00;99.90;;;0.03;100.00;102201.28;4926175;29;19931;-78
2022/01/21 07:07:19;;;;;;;;;;;1.80;99.90;;;0.06;100.00;102213.47;4930011;29;19934;-77
2022/01/21 07:09:46;;;;;;;;;;;0.80;99.90;;;0.05;100.00;102210.00;4946339;28;19979;-78
2022/01/21 07:12:13;;;;;;;;;;;0.90;99.90;;;0.05;100.00;102202.22;4929321;28;19926;-77
2022/01/21 07:14:40;;;;;;;;;;;1.10;99.90;;;0.09;100.00;102205.88;4945254;29;20466;-77
2022/01/21 07:17:09;;;;;;;;;;;1.70;99.90;;;0.08;100.00;102202.38;4930189;29;20022;-77
2022/01/21 07:19:36;;;;;;;;;;;0.70;99.90;;;0.08;100.00;102204.97;4945146;29;20025;-77
2022/01/21 07:22:04;;;;;;;;;;;2.60;99.90;;;0.14;100.00;102210.44;4946258;28;19934;-76
2022/01/21 07:24:31;;;;;;;;;;;0.90;99.90;;;0.13;100.00;102212.97;4946853;28;20391;-76
2022/01/21 07:26:58;;;;;;;;;;;3.40;99.90;;;0.16;100.00;102212.19;4933331;29;19927;-77
2022/01/21 07:29:24;;;;;;;;;;;1.70;99.90;;;0.12;100.00;102221.53;4948797;29;20002;-77
2022/01/21 07:31:54;;;;;;;;;;;2.70;99.90;;;0.15;100.00;102224.28;4932557;29;20299;-77
2022/01/21 07:34:22;;;;;;;;;;;0.90;99.90;;;0.18;100.00;102221.81;4948369;29;19938;-78
2022/01/21 07:36:50;;;;;;;;;;;0.90;99.90;;;0.20;100.00;102229.69;4933140;29;19937;-78
2022/01/21 07:39:17;;;;;;;;;;;0.90;99.90;;;0.22;100.00;102235.81;4932938;29;20013;-79
2022/01/21 07:41:44;;;;;;;;;;;1.90;99.90;;;0.19;100.00;102236.53;4983108;28;19973;-79
2022/01/21 07:44:12;;;;;;;;;;;3.00;99.90;;;0.16;100.00;102228.63;4976484;28;19962;-79
2022/01/21 07:46:41;;;;;;;;;;;0.90;99.90;;;0.20;100.00;102230.56;4992978;28;19990;-79
2022/01/21 07:49:08;;;;;;;;;;;0.90;99.90;;;0.14;100.00;102227.69;4975645;28;19949;-79
2022/01/21 07:51:35;;;;;;;;;;;1.20;99.90;;;0.20;100.00;102233.13;4973138;28;20615;-75
2022/01/21 07:54:03;;;;;;;;;;;1.20;99.90;;;0.21;100.00;102228.88;4960044;28;19930;-76
2022/01/21 07:56:33;;;;;;;;;;;1.90;99.90;;;0.23;100.00;102232.41;4950617;28;19980;-77
2022/01/21 07:59:02;;;;;;;;;;;2.10;99.90;;;0.23;100.00;102222.06;4947028;29;19926;-77
2022/01/21 08:01:29;;;;;;;;;;;1.10;99.90;;;0.22;100.00;102210.78;4947703;28;20533;-76
2022/01/21 08:03:57;;;;;;;;;;;2.70;99.90;;;0.24;100.00;102205.72;4946502;29;19941;-77
2022/01/21 08:06:24;;;;;;;;;;;1.20;99.90;;;0.18;100.00;102208.88;4947214;29;19931;-76
2022/01/21 08:08:53;;;;;;;;;;;1.20;99.90;;;0.26;100.00;102211.84;4947832;29;19934;-77
2022/01/21 08:11:21;;;;;;;;;;;1.20;99.90;;;0.25;100.00;102210.97;4947187;28;19931;-77
2022/01/21 08:13:48;;;;;;;;;;;1.30;99.90;;;0.26;100.00;102209.25;4931520;29;19930;-76
2022/01/21 08:16:16;;;;;;;;;;;1.70;99.90;;;0.34;100.00;102205.34;4947689;29;20000;-78
2022/01/21 08:18:43;;;;;;;;;;;1.50;99.90;;;0.44;100.00;102204.06;4947014;29;19931;-78
2022/01/21 08:21:18;;;;;;;;;;;1.10;99.90;;;0.47;100.00;102200.72;4946675;29;20373;-77
2022/01/21 08:23:47;;;;;;;;;;;-1.70;99.90;;;0.48;100.00;102208.56;4946834;28;20455;-76
2022/01/21 08:26:14;;;;;;;;;;;1.30;99.90;;;0.54;100.00;102216.63;4962334;28;19992;-75
2022/01/21 08:28:41;;;;;;;;;;;1.50;99.90;;;0.63;100.00;102220.47;4963831;28;19930;-76
2022/01/21 08:31:08;;;;;;;;;;;1.40;99.90;;;0.70;100.00;102232.88;4979852;28;20559;-75
2022/01/21 08:33:35;;;;;;;;;;;3.00;99.90;;;0.74;100.00;102245.19;4980143;28;19977;-76
2022/01/21 08:36:03;;;;;;;;;;;1.30;99.90;;;0.83;100.00;102240.41;4980544;28;19931;-76
2022/01/21 08:38:30;;;;;;;;;;;1.50;99.90;;;0.82;100.00;102238.66;4979970;28;19973;-76
2022/01/21 08:40:57;;;;;;;;;;;0.90;99.90;;;0.86;100.00;102242.28;4963439;28;20411;-77
2022/01/21 08:43:24;;;;;;;;;;;3.00;99.90;;;0.93;100.00;102248.63;4979276;28;19927;-76
2022/01/21 08:45:51;;;;;;;;;;;2.80;99.90;;;0.95;100.00;102247.00;4979047;28;20423;-76
2022/01/21 08:48:18;;;;;;;;;;;3.40;99.90;;;1.06;100.00;102247.47;4948259;28;19988;-76
2022/01/21 08:50:45;;;;;;;;;;;1.70;99.90;;;1.08;100.00;102241.56;4962713;28;20296;-76
2022/01/21 08:55:58;;;;;;;;;;;2.80;99.90;;;1.16;100.00;102244.50;4961173;28;19950;-75
2022/01/21 08:58:26;;;;;;;;;;;3.80;99.90;;;1.20;100.00;102243.81;4948435;28;20036;-76
2022/01/21 09:00:53;;;;;;;;;;;2.30;99.90;;;1.27;100.00;102244.97;4931497;29;20582;-76
2022/01/21 09:03:20;;;;;;;;;;;2.70;99.90;;;1.27;100.00;102251.06;4947548;29;19937;-77
2022/01/21 09:05:49;;;;;;;;;;;2.80;99.90;;;1.27;100.00;102257.94;4946683;29;20572;-76
2022/01/21 09:08:23;;;;;;;;;;;3.30;99.90;;;1.35;100.00;102263.47;4934043;29;19931;-76
2022/01/21 09:10:51;;;;;;;;;;;2.20;99.90;;;1.38;100.00;102263.59;4951698;28;19938;-76
2022/01/21 09:13:20;;;;;;;;;;;2.80;99.90;;;1.38;100.00;102256.72;4947868;29;20025;-76
2022/01/21 09:15:48;;;;;;;;;;;2.10;99.90;;;1.48;100.00;102264.88;4948937;29;19931;-76
2022/01/21 09:18:19;;;;;;;;;;;2.10;99.90;;;1.46;100.00;102254.47;4965118;28;19927;-76
2022/01/21 09:20:47;;;;;;;;;;;2.20;99.90;;;1.53;100.00;102264.28;4948500;29;20057;-76
2022/01/21 09:23:14;;;;;;;;;;;3.80;99.90;;;1.59;100.00;102267.97;4963743;28;20583;-77
2022/01/21 09:25:41;;;;;;;;;;;2.20;99.90;;;1.62;100.00;102268.09;4964630;28;19936;-77
2022/01/21 09:28:08;;;;;;;;;;;2.50;99.90;;;1.66;100.00;102270.00;4966145;28;19926;-77
2022/01/21 09:30:35;;;;;;;;;;;2.30;99.90;;;1.68;100.00;102283.94;4964661;28;20303;-77
2022/01/21 09:33:03;;;;;;;;;;;2.30;99.90;;;1.74;100.00;102268.63;4933249;29;19927;-76
2022/01/21 09:35:30;;;;;;;;;;;3.20;99.90;;;1.77;100.00;102271.34;4949045;29;19992;-77
2022/01/21 09:37:57;;;;;;;;;;;1.60;99.90;;;1.85;100.00;102274.28;4964494;28;19966;-77
2022/01/21 09:40:47;;;;;;;;;;;2.50;99.90;;;1.89;100.00;102275.31;4947959;28;19949;-77
2022/01/21 09:43:15;;;;;;;;;;;2.70;99.90;;;1.79;100.00;102274.00;4964724;28;20461;-77
2022/01/21 09:45:46;;;;;;;;;;;4.40;99.90;;;1.91;100.00;102279.72;4964113;28;19935;-77
2022/01/21 09:48:20;;;;;;;;;;;4.80;99.90;;;1.89;100.00;102288.28;4948700;28;19927;-77
2022/01/21 09:50:51;;;;;;;;;;;4.50;99.90;;;1.91;100.00;102290.09;4946094;29;19935;-78
2022/01/21 09:53:25;;;;;;;;;;;2.70;99.90;;;1.98;100.00;102299.94;4932607;29;19927;-77
2022/01/21 09:55:54;;;;;;;;;;;2.70;99.90;;;2.00;100.00;102294.81;4946640;29;19927;-76
2022/01/21 09:58:21;;;;;;;;;;;2.70;99.90;;;2.08;100.00;102287.34;4930006;29;19930;-77
2022/01/21 10:00:48;;;;;;;;;;;2.70;99.90;;;2.23;100.00;102284.50;4929811;29;20291;-77
2022/01/21 10:03:15;;;;;;;;;;;5.20;99.90;;;2.27;100.00;102291.59;4931577;29;19930;-76
2022/01/21 10:05:47;;;;;;;;;;;2.90;99.90;;;2.33;100.00;102288.38;4947030;29;20013;-77
2022/01/21 10:08:15;;;;;;;;;;;2.80;99.90;;;2.40;100.00;102291.28;4930440;29;19931;-77
2022/01/21 10:10:43;;;;;;;;;;;3.00;99.90;;;2.50;100.00;102289.06;4931850;29;19930;-77
2022/01/21 10:13:14;;;;;;;;;;;3.00;99.90;;;2.58;100.00;102287.66;4946638;28;20382;-77
2022/01/21 10:15:41;;;;;;;;;;;3.20;99.90;;;2.67;100.00;102287.13;4978413;28;19931;-77
2022/01/21 10:18:12;;;;;;;;;;;3.10;99.90;;;2.65;100.00;102283.56;4948840;28;20018;-77
2022/01/21 10:20:55;;;;;;;;;;;3.70;99.90;;;2.69;100.00;102275.97;4963479;28;20349;-77
2022/01/21 10:23:23;;;;;;;;;;;3.10;99.90;;;2.78;100.00;102290.13;4948357;28;20025;-77
2022/01/21 10:25:59;;;;;;;;;;;3.50;99.90;;;2.73;100.00;102283.88;4946713;28;19933;-77
2022/01/21 10:28:26;;;;;;;;;;;3.40;99.90;;;2.72;100.00;102280.38;4958024;28;20044;-77
2022/01/21 10:31:24;;;;;;;;;;;3.50;99.90;;;2.91;100.00;102278.53;4973049;28;20009;-77
2022/01/21 10:34:01;;;;;;;;;;;3.60;99.90;;;2.92;100.00;102275.09;4947716;28;19930;-77
2022/01/21 10:36:33;;;;;;;;;;;3.90;99.90;;;3.05;100.00;102274.72;4945917;28;19931;-77
2022/01/21 10:39:10;;;;;;;;;;;3.60;99.90;;;3.18;100.00;102275.16;4947390;29;19938;-77
2022/01/21 10:41:45;;;;;;;;;;;3.70;99.90;;;3.18;100.00;102272.56;4931649;29;19935;-77
2022/01/21 10:44:17;;;;;;;;;;;3.80;99.90;;;3.22;100.00;102275.34;4948827;28;19934;-77
2022/01/21 10:47:03;;;;;;;;;;;4.30;99.90;;;3.31;100.00;102269.59;4951855;28;19930;-77
2022/01/21 10:49:30;;;;;;;;;;;3.90;99.90;;;3.35;100.00;102274.06;4967318;28;19926;-77
2022/01/21 10:51:57;;;;;;;;;;;3.90;99.90;;;3.37;100.00;102272.44;4967308;28;19936;-77
2022/01/21 10:54:26;;;;;;;;;;;3.90;99.90;;;3.34;100.00;102271.44;4970135;28;19926;-77
2022/01/21 10:57:16;;;;;;;;;;;5.10;99.90;;;3.48;100.00;102267.59;4952794;28;19926;-78
2022/01/21 10:59:46;;;;;;;;;;;4.00;99.90;;;3.47;100.00;102268.44;4968156;28;19926;-78
2022/01/21 11:02:13;;;;;;;;;;;5.80;99.90;;;3.59;100.00;102257.56;4971363;28;19933;-77
2022/01/21 11:04:42;;;;;;;;;;;5.20;99.90;;;3.69;100.00;102257.06;4954607;28;19938;-77
2022/01/21 11:07:12;;;;;;;;;;;4.30;99.90;;;3.69;100.00;102261.38;4970189;28;19930;-77
2022/01/21 11:09:39;;;;;;;;;;;4.40;99.90;;;3.71;100.00;102257.13;4954636;28;19930;-78
2022/01/21 11:12:11;;;;;;;;;;;5.00;99.90;;;3.84;100.00;102263.66;4944033;28;20045;-77
2022/01/21 11:14:55;;;;;;;;;;;4.30;99.90;;;4.00;100.00;102261.56;4951171;29;20227;-78
2022/01/21 11:17:22;;;;;;;;;;;4.40;99.90;;;4.01;100.00;102255.53;4935814;29;20029;-78
2022/01/21 11:20:13;;;;;;;;;;;5.50;99.90;;;4.01;100.00;102259.00;4935365;28;20018;-79
2022/01/21 11:22:58;;;;;;;;;;;4.60;99.90;;;4.05;100.00;102250.44;4950824;29;19930;-78
2022/01/21 11:25:44;;;;;;;;;;;4.50;99.90;;;4.15;100.00;102241.25;4918798;29;20033;-75
2022/01/21 11:28:14;;;;;;;;;;;4.80;99.90;;;4.23;100.00;102239.75;4949557;29;19938;-77
2022/01/21 11:30:41;;;;;;;;;;;4.80;99.90;;;4.16;100.00;102237.78;4964054;28;19930;-78
2022/01/21 11:33:26;;;;;;;;;;;4.80;99.70;;;4.19;100.00;102237.88;4962226;28;19929;-75
2022/01/21 11:35:53;;;;;;;;;;;5.50;99.90;;;4.25;100.00;102235.47;4959779;28;19930;-77
2022/01/21 11:38:23;;;;;;;;;;;4.80;99.90;;;4.33;100.00;102238.31;4947396;29;20478;-76
2022/01/21 11:40:51;;;;;;;;;;;4.80;99.90;;;4.37;100.00;102234.09;4967504;28;19938;-77
2022/01/21 11:43:19;;;;;;;;;;;5.80;99.90;;;4.46;100.00;102241.31;4930468;29;19957;-78
2022/01/21 11:51:16;;;;;;;;;;;5.10;99.80;;;4.44;100.00;102230.84;4948179;28;19930;-77
2022/01/21 11:53:45;;;;;;;;;;;7.10;99.70;;;4.41;100.00;102222.91;4947244;29;19930;-77
2022/01/21 11:56:39;;;;;;;;;;;5.10;99.20;;;4.40;100.00;102226.38;4963686;28;19926;-76
2022/01/21 11:59:09;;;;;;;;;;;5.00;99.10;;;4.42;100.00;102222.09;4946766;28;20045;-77
2022/01/21 12:01:46;;;;;;;;;;;7.30;99.90;;;4.24;100.00;102222.41;4948886;28;19930;-78
2022/01/21 12:04:35;;;;;;;;;;;4.90;98.80;;;4.36;100.00;102227.97;4949911;28;20388;-78
2022/01/21 12:07:02;;;;;;;;;;;6.20;99.60;;;4.49;100.00;102218.84;4949607;29;19962;-78
2022/01/21 12:09:55;;;;;;;;;;;5.10;99.50;;;4.61;100.00;102217.47;4936467;29;19958;-78
2022/01/21 12:12:23;;;;;;;;;;;5.10;99.40;;;4.60;100.00;102207.84;4960829;28;20030;-78
2022/01/21 12:14:57;;;;;;;;;;;5.10;99.00;;;4.56;100.00;102199.06;4946222;29;19942;-78
2022/01/21 12:17:45;;;;;;;;;;;7.80;99.30;;;4.63;100.00;102205.34;4955870;28;19937;-78
2022/01/21 12:20:12;;;;;;;;;;;5.20;98.60;;;4.60;100.00;102193.09;4950845;28;20042;-79
2022/01/21 12:22:39;;;;;;;;;;;5.10;98.60;;;4.64;100.00;102194.09;4951020;29;19980;-79
2022/01/21 12:25:09;;;;;;;;;;;5.20;98.60;;;4.57;100.00;102199.94;4951990;28;19989;-79
2022/01/21 12:27:37;;;;;;;;;;;5.20;98.70;;;4.53;100.00;102194.63;4951950;28;19930;-79
2022/01/21 12:30:20;;;;;;;;;;;6.70;99.20;;;4.72;100.00;102207.34;4951930;28;20021;-79
2022/01/21 12:32:56;;;;;;;;;;;5.10;98.90;;;4.76;100.00;102202.28;4950564;29;20330;-79